Osage, OK (74054)

05:11 AM CDT del 25 Ottobre 2014 (GMT -0500)
Keystone Lake | Change Station
CLOSE
Current Station
Stazione meteo personale
Location: Mannford, OK
Altitudine: 900 ft
Stazioni meteo nelle vicinanze

Alt. 900 ft 36.15 °N, 96.37 °W | Updated 0 second ago

Sereno
Sereno
63.2 °F
Sembra 63.2 °F
N
0.0
Vento Variabile Vento da OSO
Gusts 0.0 mph

Oggi
Massima -- | Minima -- °F
--% Possibilità di precip.
Ieri
Massima -- | Minima -- °F
Precip. -- in
7:41 AM 6:36 PM
Luna nuova, 2% visible
Pressione 30.05 in
Visibilità 10.0 miglia
Nuvole Sereno
Punto di rugiada 59 °F
Umidità 87%
Piovosità 0.00 in
Spessore del manto nevoso Non disponibile.
Raggi UV 0 fuori da 12
Polline 4.00 fuori da 12
Ozono Buono
Flu Activity Sporadic
METAR KOWP 250935Z AUTO 19003KT 10SM CLR 20/16 A3005 RMK AO2 T02000162

More Conditions Fewer Conditions

Pressione 30.05 in
Visibilità 10.0 miglia
Nuvole Sereno
Punto di rugiada 59 °F
Umidità 87%
Piovosità 0.00 in
Spessore del manto nevoso Non disponibile.
Raggi UV 0 fuori da 12
Polline 4.00 fuori da 12
Ozono Buono
Flu Activity Sporadic
METAR KOWP 250935Z AUTO 19003KT 10SM CLR 20/16 A3005 RMK AO2 T02000162

More Conditions Fewer Conditions

10-Day Weather Forecast

Almanac

Astronomia

Oct. 25, 2014 Alba Tramonto
Ora attuale 07:41 CDT 18:36 CDT
Crepuscolo civile 07:15 CDT 19:03 CDT
Crepuscolo nautico 06:45 CDT 19:33 CDT
Crepuscolo astronomico 06:15 CDT 20:03 CDT
Luna 09:19 CDT 20:03 CDT
Estensione della luce visibile 11h 47m
Lunghezza del giorno
10h 55m
Tomorrow will be 2m 6s shorter.
Luna nuova, 2% of the Moon is Illuminated
Oggi
Luna nuova
Ott 30
Primo quarto
Nov 6
Luna piena
Nov 14
Ultimo quarto
Nov 22
Nuovo

Gli estremi di oggi

State Highs State Lows

Community

WunderPhotos

Upload Photos

1,764,796 foto caricate!

Nearby

Qualità dell'aria

  Qualità dell'aria Indice AQ Inquinante
Ieri Buono
OZONE
Attuale Buono
OZONE
Sabato Moderato
PM2.5
Sabato Buono
OZONE
Domenica Moderato
PM2.5
Domenica Buono
OZONE
Lunedì Moderato
PM2.5
Lunedì Buono
OZONE
Martedì Moderato
PM2.5
Martedì Buono
OZONE
Mercoledì Buono
OZONE
Mercoledì Buono
PM2.5

Profondità neve

Stazione Profondità Altitudine
Non sono state evidenziate nuove nevicate

Attività sismica

Città  Distanza Mag. Data & Ora
Pawnee, Oklahoma 37 miglia 2.6 19:24 CDT
2014-10-24
Medford, Oklahoma 89 miglia 2.6 12:44 CDT
2014-10-24
Anthony, Kansas 99 miglia 2.7 04:24 CDT
2014-10-24
Medford, Oklahoma 78 miglia 3.0 02:06 CDT
2014-10-23
Minimo Magnitudo Mostrato è 2.5.

Temperature delle acque costiere

Località Temperatura
Nessun dato dalle stazioni

Stazioni meteo nelle vicinanze